Terminal Aerodrome Forecast
Issued by NWS

Home | Current Version | Previous Version | Text Only | Print | Product List | Glossary On
Versions: 1 2 3 4 5 6 7 8 9 10 11 12
000
FTUS45 KREV 161100
TAFMMH
TAF
KMMH 161120Z 1612/1712 33004KT P6SM SCT180
     FM161800 28009KT P6SM FEW180
     FM170200 VRB03KT P6SM SKC
      AMD NOT SKED 1612/1614=

USA.gov is the U.S. government's official web portal to all federal, state and local government web resources and services.